sensor_id;sensor_type;location;lat;lon;timestamp;P1;durP1;ratioP1;P2;durP2;ratioP2
70899;SDS011;67902;52.154;5.430;2024-01-11T00:01:46;12.80;;;5.32;;
70899;SDS011;67902;52.154;5.430;2024-01-11T00:04:13;16.38;;;5.53;;
70899;SDS011;67902;52.154;5.430;2024-01-11T00:06:43;19.05;;;5.82;;
70899;SDS011;67902;52.154;5.430;2024-01-11T00:09:10;16.10;;;5.00;;
70899;SDS011;67902;52.154;5.430;2024-01-11T00:11:39;15.05;;;5.78;;
70899;SDS011;67902;52.154;5.430;2024-01-11T00:14:06;17.08;;;5.53;;
70899;SDS011;67902;52.154;5.430;2024-01-11T00:16:33;15.80;;;6.82;;
70899;SDS011;67902;52.154;5.430;2024-01-11T00:18:59;16.80;;;5.30;;
70899;SDS011;67902;52.154;5.430;2024-01-11T00:21:26;12.75;;;4.90;;
70899;SDS011;67902;52.154;5.430;2024-01-11T00:23:52;17.65;;;5.57;;
70899;SDS011;67902;52.154;5.430;2024-01-11T00:26:19;15.15;;;5.38;;
70899;SDS011;67902;52.154;5.430;2024-01-11T00:28:46;21.70;;;5.65;;
70899;SDS011;67902;52.154;5.430;2024-01-11T00:31:12;12.18;;;4.50;;
70899;SDS011;67902;52.154;5.430;2024-01-11T00:33:39;15.48;;;5.32;;
70899;SDS011;67902;52.154;5.430;2024-01-11T00:36:05;18.88;;;5.35;;
70899;SDS011;67902;52.154;5.430;2024-01-11T00:38:32;17.17;;;5.97;;
70899;SDS011;67902;52.154;5.430;2024-01-11T00:40:59;14.38;;;4.88;;
70899;SDS011;67902;52.154;5.430;2024-01-11T00:43:28;19.83;;;6.20;;
70899;SDS011;67902;52.154;5.430;2024-01-11T00:45:55;14.00;;;5.20;;
70899;SDS011;67902;52.154;5.430;2024-01-11T00:48:21;17.20;;;4.75;;
70899;SDS011;67902;52.154;5.430;2024-01-11T00:50:48;18.23;;;6.18;;
70899;SDS011;67902;52.154;5.430;2024-01-11T00:53:14;12.75;;;5.15;;
70899;SDS011;67902;52.154;5.430;2024-01-11T00:55:41;20.20;;;6.07;;
70899;SDS011;67902;52.154;5.430;2024-01-11T00:58:07;14.70;;;5.55;;
70899;SDS011;67902;52.154;5.430;2024-01-11T01:00:34;14.18;;;4.70;;
70899;SDS011;67902;52.154;5.430;2024-01-11T01:03:00;13.60;;;4.88;;
70899;SDS011;67902;52.154;5.430;2024-01-11T01:05:30;16.85;;;6.18;;
70899;SDS011;67902;52.154;5.430;2024-01-11T01:07:56;13.90;;;5.60;;
70899;SDS011;67902;52.154;5.430;2024-01-11T01:10:23;15.38;;;5.68;;
70899;SDS011;67902;52.154;5.430;2024-01-11T01:12:50;19.33;;;5.80;;
70899;SDS011;67902;52.154;5.430;2024-01-11T01:15:16;18.42;;;5.88;;
70899;SDS011;67902;52.154;5.430;2024-01-11T01:17:43;20.23;;;6.07;;
70899;SDS011;67902;52.154;5.430;2024-01-11T01:20:09;15.93;;;6.25;;
70899;SDS011;67902;52.154;5.430;2024-01-11T01:22:36;14.25;;;4.72;;
70899;SDS011;67902;52.154;5.430;2024-01-11T01:25:03;18.27;;;6.28;;
70899;SDS011;67902;52.154;5.430;2024-01-11T01:27:30;12.82;;;5.43;;
70899;SDS011;67902;52.154;5.430;2024-01-11T01:29:56;19.10;;;6.20;;
70899;SDS011;67902;52.154;5.430;2024-01-11T01:32:23;16.25;;;5.65;;
70899;SDS011;67902;52.154;5.430;2024-01-11T01:34:49;13.68;;;5.18;;
70899;SDS011;67902;52.154;5.430;2024-01-11T01:37:16;19.02;;;6.65;;
70899;SDS011;67902;52.154;5.430;2024-01-11T01:39:42;17.42;;;5.70;;
70899;SDS011;67902;52.154;5.430;2024-01-11T01:42:09;16.60;;;5.55;;
70899;SDS011;67902;52.154;5.430;2024-01-11T01:44:35;17.88;;;6.43;;
70899;SDS011;67902;52.154;5.430;2024-01-11T01:47:02;17.58;;;5.78;;
70899;SDS011;67902;52.154;5.430;2024-01-11T01:49:30;22.30;;;6.28;;
70899;SDS011;67902;52.154;5.430;2024-01-11T01:51:57;20.45;;;6.03;;
70899;SDS011;67902;52.154;5.430;2024-01-11T01:54:24;16.63;;;5.63;;
70899;SDS011;67902;52.154;5.430;2024-01-11T01:56:51;17.08;;;5.90;;
70899;SDS011;67902;52.154;5.430;2024-01-11T01:59:19;16.63;;;6.15;;
70899;SDS011;67902;52.154;5.430;2024-01-11T02:01:47;17.00;;;6.20;;
70899;SDS011;67902;52.154;5.430;2024-01-11T02:04:14;21.30;;;6.78;;
70899;SDS011;67902;52.154;5.430;2024-01-11T02:06:41;14.43;;;5.85;;
70899;SDS011;67902;52.154;5.430;2024-01-11T02:09:11;13.50;;;5.40;;
70899;SDS011;67902;52.154;5.430;2024-01-11T02:11:40;12.27;;;4.93;;
70899;SDS011;67902;52.154;5.430;2024-01-11T02:14:07;15.13;;;5.00;;
70899;SDS011;67902;52.154;5.430;2024-01-11T02:16:37;19.67;;;5.43;;
70899;SDS011;67902;52.154;5.430;2024-01-11T02:19:06;15.90;;;6.15;;
70899;SDS011;67902;52.154;5.430;2024-01-11T02:21:37;11.90;;;5.30;;
70899;SDS011;67902;52.154;5.430;2024-01-11T02:24:05;16.17;;;6.18;;
70899;SDS011;67902;52.154;5.430;2024-01-11T02:29:00;15.85;;;4.97;;
70899;SDS011;67902;52.154;5.430;2024-01-11T02:31:27;16.55;;;5.72;;
70899;SDS011;67902;52.154;5.430;2024-01-11T02:33:54;15.63;;;6.03;;
70899;SDS011;67902;52.154;5.430;2024-01-11T02:36:22;20.17;;;5.78;;
70899;SDS011;67902;52.154;5.430;2024-01-11T02:38:49;21.63;;;7.38;;
70899;SDS011;67902;52.154;5.430;2024-01-11T02:41:18;16.77;;;5.47;;
70899;SDS011;67902;52.154;5.430;2024-01-11T02:43:48;18.50;;;6.55;;
70899;SDS011;67902;52.154;5.430;2024-01-11T02:46:15;19.50;;;6.72;;
70899;SDS011;67902;52.154;5.430;2024-01-11T02:48:43;16.10;;;6.50;;
70899;SDS011;67902;52.154;5.430;2024-01-11T02:51:09;21.10;;;7.22;;
70899;SDS011;67902;52.154;5.430;2024-01-11T02:53:36;20.70;;;6.70;;
70899;SDS011;67902;52.154;5.430;2024-01-11T02:56:03;21.55;;;7.03;;
70899;SDS011;67902;52.154;5.430;2024-01-11T02:58:30;16.30;;;6.30;;
70899;SDS011;67902;52.154;5.430;2024-01-11T03:00:57;17.80;;;6.45;;
70899;SDS011;67902;52.154;5.430;2024-01-11T03:03:23;19.75;;;6.50;;
70899;SDS011;67902;52.154;5.430;2024-01-11T03:05:50;21.80;;;7.50;;
70899;SDS011;67902;52.154;5.430;2024-01-11T03:08:17;26.88;;;7.40;;
70899;SDS011;67902;52.154;5.430;2024-01-11T03:10:43;21.35;;;7.05;;
70899;SDS011;67902;52.154;5.430;2024-01-11T03:13:10;18.45;;;6.90;;
70899;SDS011;67902;52.154;5.430;2024-01-11T03:15:36;17.20;;;6.00;;
70899;SDS011;67902;52.154;5.430;2024-01-11T03:18:03;17.00;;;5.78;;
70899;SDS011;67902;52.154;5.430;2024-01-11T03:20:30;17.83;;;6.65;;
70899;SDS011;67902;52.154;5.430;2024-01-11T03:22:56;18.45;;;6.93;;
70899;SDS011;67902;52.154;5.430;2024-01-11T03:25:23;17.55;;;5.82;;
70899;SDS011;67902;52.154;5.430;2024-01-11T03:27:49;21.00;;;7.53;;
70899;SDS011;67902;52.154;5.430;2024-01-11T03:30:16;25.30;;;8.80;;
70899;SDS011;67902;52.154;5.430;2024-01-11T03:32:43;26.17;;;7.78;;
70899;SDS011;67902;52.154;5.430;2024-01-11T03:35:10;22.25;;;8.23;;
70899;SDS011;67902;52.154;5.430;2024-01-11T03:37:39;24.45;;;7.68;;
70899;SDS011;67902;52.154;5.430;2024-01-11T03:40:06;23.10;;;8.25;;
70899;SDS011;67902;52.154;5.430;2024-01-11T03:42:33;24.63;;;8.63;;
70899;SDS011;67902;52.154;5.430;2024-01-11T03:44:59;19.20;;;8.35;;
70899;SDS011;67902;52.154;5.430;2024-01-11T03:47:26;25.50;;;9.27;;
70899;SDS011;67902;52.154;5.430;2024-01-11T03:49:52;23.15;;;9.18;;
70899;SDS011;67902;52.154;5.430;2024-01-11T03:52:19;22.83;;;8.60;;
70899;SDS011;67902;52.154;5.430;2024-01-11T03:54:46;23.08;;;8.20;;
70899;SDS011;67902;52.154;5.430;2024-01-11T03:57:13;22.00;;;7.65;;
70899;SDS011;67902;52.154;5.430;2024-01-11T03:59:40;27.42;;;9.20;;
70899;SDS011;67902;52.154;5.430;2024-01-11T04:02:07;23.52;;;9.25;;
70899;SDS011;67902;52.154;5.430;2024-01-11T04:04:33;25.48;;;8.45;;
70899;SDS011;67902;52.154;5.430;2024-01-11T04:07:00;19.35;;;8.20;;
70899;SDS011;67902;52.154;5.430;2024-01-11T04:09:26;25.80;;;9.75;;
70899;SDS011;67902;52.154;5.430;2024-01-11T04:11:53;32.40;;;10.52;;
70899;SDS011;67902;52.154;5.430;2024-01-11T04:14:19;29.15;;;9.35;;
70899;SDS011;67902;52.154;5.430;2024-01-11T04:16:46;27.63;;;10.32;;
70899;SDS011;67902;52.154;5.430;2024-01-11T04:19:12;24.08;;;10.02;;
70899;SDS011;67902;52.154;5.430;2024-01-11T04:21:39;24.63;;;9.15;;
70899;SDS011;67902;52.154;5.430;2024-01-11T04:24:06;26.90;;;9.80;;
70899;SDS011;67902;52.154;5.430;2024-01-11T04:26:32;27.65;;;10.05;;
70899;SDS011;67902;52.154;5.430;2024-01-11T04:28:59;30.92;;;9.45;;
70899;SDS011;67902;52.154;5.430;2024-01-11T04:31:26;29.08;;;10.70;;
70899;SDS011;67902;52.154;5.430;2024-01-11T04:33:53;29.23;;;10.05;;
70899;SDS011;67902;52.154;5.430;2024-01-11T04:36:20;24.88;;;8.65;;
70899;SDS011;67902;52.154;5.430;2024-01-11T04:38:46;27.95;;;9.30;;
70899;SDS011;67902;52.154;5.430;2024-01-11T04:41:13;27.63;;;10.00;;
70899;SDS011;67902;52.154;5.430;2024-01-11T04:43:43;34.38;;;12.27;;
70899;SDS011;67902;52.154;5.430;2024-01-11T04:46:17;24.95;;;9.27;;
70899;SDS011;67902;52.154;5.430;2024-01-11T04:48:45;27.10;;;10.32;;
70899;SDS011;67902;52.154;5.430;2024-01-11T04:51:13;34.42;;;11.88;;
70899;SDS011;67902;52.154;5.430;2024-01-11T04:53:40;25.30;;;10.38;;
70899;SDS011;67902;52.154;5.430;2024-01-11T04:56:08;18.48;;;8.55;;
70899;SDS011;67902;52.154;5.430;2024-01-11T04:58:36;26.75;;;10.05;;
70899;SDS011;67902;52.154;5.430;2024-01-11T05:01:07;28.42;;;10.30;;
70899;SDS011;67902;52.154;5.430;2024-01-11T05:03:38;33.08;;;11.43;;
70899;SDS011;67902;52.154;5.430;2024-01-11T05:06:04;27.55;;;10.95;;
70899;SDS011;67902;52.154;5.430;2024-01-11T05:08:31;32.95;;;10.30;;
70899;SDS011;67902;52.154;5.430;2024-01-11T05:10:58;28.00;;;10.52;;
70899;SDS011;67902;52.154;5.430;2024-01-11T05:13:27;29.60;;;9.65;;
70899;SDS011;67902;52.154;5.430;2024-01-11T05:15:54;29.20;;;10.07;;
70899;SDS011;67902;52.154;5.430;2024-01-11T05:18:21;33.33;;;10.23;;
70899;SDS011;67902;52.154;5.430;2024-01-11T05:20:47;31.23;;;10.50;;
70899;SDS011;67902;52.154;5.430;2024-01-11T05:23:14;26.52;;;9.68;;
70899;SDS011;67902;52.154;5.430;2024-01-11T05:25:40;20.73;;;8.75;;
70899;SDS011;67902;52.154;5.430;2024-01-11T05:28:07;25.65;;;9.77;;
70899;SDS011;67902;52.154;5.430;2024-01-11T05:30:33;31.00;;;11.10;;
70899;SDS011;67902;52.154;5.430;2024-01-11T05:33:00;32.67;;;11.18;;
70899;SDS011;67902;52.154;5.430;2024-01-11T05:35:27;25.55;;;11.10;;
70899;SDS011;67902;52.154;5.430;2024-01-11T05:37:54;25.15;;;10.55;;
70899;SDS011;67902;52.154;5.430;2024-01-11T05:40:23;27.90;;;10.98;;
70899;SDS011;67902;52.154;5.430;2024-01-11T05:42:50;31.17;;;9.70;;
70899;SDS011;67902;52.154;5.430;2024-01-11T05:45:16;33.13;;;10.68;;
70899;SDS011;67902;52.154;5.430;2024-01-11T05:47:47;29.05;;;11.10;;
70899;SDS011;67902;52.154;5.430;2024-01-11T05:50:14;28.63;;;11.00;;
70899;SDS011;67902;52.154;5.430;2024-01-11T05:52:41;27.00;;;9.10;;
70899;SDS011;67902;52.154;5.430;2024-01-11T05:55:08;28.42;;;10.98;;
70899;SDS011;67902;52.154;5.430;2024-01-11T05:57:35;30.55;;;11.40;;
70899;SDS011;67902;52.154;5.430;2024-01-11T06:00:01;28.15;;;9.18;;
70899;SDS011;67902;52.154;5.430;2024-01-11T06:02:28;34.08;;;9.98;;
70899;SDS011;67902;52.154;5.430;2024-01-11T06:04:57;25.45;;;9.00;;
70899;SDS011;67902;52.154;5.430;2024-01-11T06:07:24;36.35;;;12.82;;
70899;SDS011;67902;52.154;5.430;2024-01-11T06:09:50;28.33;;;9.63;;
70899;SDS011;67902;52.154;5.430;2024-01-11T06:12:16;31.98;;;11.90;;
70899;SDS011;67902;52.154;5.430;2024-01-11T06:14:43;29.50;;;10.07;;
70899;SDS011;67902;52.154;5.430;2024-01-11T06:17:13;26.92;;;10.20;;
70899;SDS011;67902;52.154;5.430;2024-01-11T06:19:39;29.10;;;10.60;;
70899;SDS011;67902;52.154;5.430;2024-01-11T06:22:06;33.30;;;10.57;;
70899;SDS011;67902;52.154;5.430;2024-01-11T06:24:33;22.02;;;9.10;;
70899;SDS011;67902;52.154;5.430;2024-01-11T06:26:59;27.20;;;9.40;;
70899;SDS011;67902;52.154;5.430;2024-01-11T06:29:28;25.15;;;8.98;;
70899;SDS011;67902;52.154;5.430;2024-01-11T06:31:55;33.38;;;10.70;;
70899;SDS011;67902;52.154;5.430;2024-01-11T06:34:21;30.00;;;10.98;;
70899;SDS011;67902;52.154;5.430;2024-01-11T06:36:48;29.17;;;10.02;;
70899;SDS011;67902;52.154;5.430;2024-01-11T06:39:14;25.40;;;9.25;;
70899;SDS011;67902;52.154;5.430;2024-01-11T06:41:41;24.17;;;9.80;;
70899;SDS011;67902;52.154;5.430;2024-01-11T06:44:08;25.67;;;10.90;;
70899;SDS011;67902;52.154;5.430;2024-01-11T06:46:35;31.83;;;11.00;;
70899;SDS011;67902;52.154;5.430;2024-01-11T06:49:02;27.15;;;10.00;;
70899;SDS011;67902;52.154;5.430;2024-01-11T06:51:30;21.02;;;8.77;;
70899;SDS011;67902;52.154;5.430;2024-01-11T06:53:56;18.50;;;7.47;;
70899;SDS011;67902;52.154;5.430;2024-01-11T06:56:23;27.98;;;10.52;;
70899;SDS011;67902;52.154;5.430;2024-01-11T06:58:49;27.02;;;8.20;;
70899;SDS011;67902;52.154;5.430;2024-01-11T07:01:16;28.98;;;10.07;;
70899;SDS011;67902;52.154;5.430;2024-01-11T07:03:43;29.20;;;10.50;;
70899;SDS011;67902;52.154;5.430;2024-01-11T07:06:10;28.63;;;10.70;;
70899;SDS011;67902;52.154;5.430;2024-01-11T07:08:37;28.60;;;11.38;;
70899;SDS011;67902;52.154;5.430;2024-01-11T07:11:04;27.95;;;11.38;;
70899;SDS011;67902;52.154;5.430;2024-01-11T07:13:31;34.33;;;11.10;;
70899;SDS011;67902;52.154;5.430;2024-01-11T07:15:57;35.40;;;11.50;;
70899;SDS011;67902;52.154;5.430;2024-01-11T07:18:25;31.83;;;10.30;;
70899;SDS011;67902;52.154;5.430;2024-01-11T07:20:52;33.50;;;11.13;;
70899;SDS011;67902;52.154;5.430;2024-01-11T07:23:19;34.92;;;10.07;;
70899;SDS011;67902;52.154;5.430;2024-01-11T07:25:47;27.70;;;11.07;;
70899;SDS011;67902;52.154;5.430;2024-01-11T07:28:13;32.70;;;10.35;;
70899;SDS011;67902;52.154;5.430;2024-01-11T07:30:43;28.48;;;10.18;;
70899;SDS011;67902;52.154;5.430;2024-01-11T07:33:10;32.38;;;11.23;;
70899;SDS011;67902;52.154;5.430;2024-01-11T07:35:37;31.85;;;10.48;;
70899;SDS011;67902;52.154;5.430;2024-01-11T07:38:04;30.80;;;10.98;;
70899;SDS011;67902;52.154;5.430;2024-01-11T07:40:30;28.02;;;11.10;;
70899;SDS011;67902;52.154;5.430;2024-01-11T07:43:01;34.78;;;11.68;;
70899;SDS011;67902;52.154;5.430;2024-01-11T07:45:27;30.30;;;10.73;;
70899;SDS011;67902;52.154;5.430;2024-01-11T07:47:54;31.98;;;11.50;;
70899;SDS011;67902;52.154;5.430;2024-01-11T07:50:20;31.65;;;11.00;;
70899;SDS011;67902;52.154;5.430;2024-01-11T07:52:47;32.17;;;11.95;;
70899;SDS011;67902;52.154;5.430;2024-01-11T07:55:14;29.60;;;11.38;;
70899;SDS011;67902;52.154;5.430;2024-01-11T07:57:40;33.33;;;10.57;;
70899;SDS011;67902;52.154;5.430;2024-01-11T08:00:08;27.77;;;10.93;;
70899;SDS011;67902;52.154;5.430;2024-01-11T08:02:37;34.70;;;12.90;;
70899;SDS011;67902;52.154;5.430;2024-01-11T08:05:04;29.05;;;11.70;;
70899;SDS011;67902;52.154;5.430;2024-01-11T08:07:31;28.85;;;10.75;;
70899;SDS011;67902;52.154;5.430;2024-01-11T08:09:58;33.85;;;12.80;;
70899;SDS011;67902;52.154;5.430;2024-01-11T08:12:24;25.83;;;10.90;;
70899;SDS011;67902;52.154;5.430;2024-01-11T08:14:51;28.52;;;12.63;;
70899;SDS011;67902;52.154;5.430;2024-01-11T08:17:18;31.58;;;11.85;;
70899;SDS011;67902;52.154;5.430;2024-01-11T08:19:45;35.28;;;12.70;;
70899;SDS011;67902;52.154;5.430;2024-01-11T08:22:11;30.75;;;11.65;;
70899;SDS011;67902;52.154;5.430;2024-01-11T08:24:38;34.30;;;12.30;;
70899;SDS011;67902;52.154;5.430;2024-01-11T08:27:05;40.08;;;14.40;;
70899;SDS011;67902;52.154;5.430;2024-01-11T08:29:32;39.22;;;13.60;;
70899;SDS011;67902;52.154;5.430;2024-01-11T08:31:59;34.25;;;13.88;;
70899;SDS011;67902;52.154;5.430;2024-01-11T08:34:49;32.20;;;11.75;;
70899;SDS011;67902;52.154;5.430;2024-01-11T08:37:16;36.45;;;14.00;;
70899;SDS011;67902;52.154;5.430;2024-01-11T08:39:42;33.13;;;12.65;;
70899;SDS011;67902;52.154;5.430;2024-01-11T08:42:09;32.03;;;11.93;;
70899;SDS011;67902;52.154;5.430;2024-01-11T08:44:36;40.83;;;13.38;;
70899;SDS011;67902;52.154;5.430;2024-01-11T08:47:04;37.60;;;14.77;;
70899;SDS011;67902;52.154;5.430;2024-01-11T08:49:31;35.85;;;13.70;;
70899;SDS011;67902;52.154;5.430;2024-01-11T08:51:59;35.30;;;13.52;;
70899;SDS011;67902;52.154;5.430;2024-01-11T08:54:25;38.80;;;14.02;;
70899;SDS011;67902;52.154;5.430;2024-01-11T08:56:51;38.13;;;13.20;;
70899;SDS011;67902;52.154;5.430;2024-01-11T08:59:19;41.70;;;14.93;;
70899;SDS011;67902;52.154;5.430;2024-01-11T09:01:45;37.40;;;13.68;;
70899;SDS011;67902;52.154;5.430;2024-01-11T09:04:27;35.83;;;13.13;;
70899;SDS011;67902;52.154;5.430;2024-01-11T09:06:56;40.08;;;14.65;;
70899;SDS011;67902;52.154;5.430;2024-01-11T09:09:24;36.10;;;13.40;;
70899;SDS011;67902;52.154;5.430;2024-01-11T09:11:50;43.83;;;14.13;;
70899;SDS011;67902;52.154;5.430;2024-01-11T09:14:17;34.45;;;13.48;;
70899;SDS011;67902;52.154;5.430;2024-01-11T09:16:44;36.33;;;14.68;;
70899;SDS011;67902;52.154;5.430;2024-01-11T09:19:12;35.90;;;13.90;;
70899;SDS011;67902;52.154;5.430;2024-01-11T09:21:39;31.98;;;12.18;;
70899;SDS011;67902;52.154;5.430;2024-01-11T09:24:05;36.88;;;13.38;;
70899;SDS011;67902;52.154;5.430;2024-01-11T09:26:32;36.65;;;13.50;;
70899;SDS011;67902;52.154;5.430;2024-01-11T09:28:59;35.10;;;11.77;;
70899;SDS011;67902;52.154;5.430;2024-01-11T09:31:25;39.28;;;12.50;;
70899;SDS011;67902;52.154;5.430;2024-01-11T09:33:52;38.05;;;12.45;;
70899;SDS011;67902;52.154;5.430;2024-01-11T09:36:19;32.17;;;11.90;;
70899;SDS011;67902;52.154;5.430;2024-01-11T09:38:46;40.17;;;12.70;;
70899;SDS011;67902;52.154;5.430;2024-01-11T09:41:12;36.83;;;10.98;;
70899;SDS011;67902;52.154;5.430;2024-01-11T09:43:40;28.30;;;9.98;;
70899;SDS011;67902;52.154;5.430;2024-01-11T09:46:09;43.03;;;11.98;;
70899;SDS011;67902;52.154;5.430;2024-01-11T09:48:39;29.75;;;10.50;;
70899;SDS011;67902;52.154;5.430;2024-01-11T09:51:10;28.83;;;10.13;;
70899;SDS011;67902;52.154;5.430;2024-01-11T09:53:39;27.23;;;10.23;;
70899;SDS011;67902;52.154;5.430;2024-01-11T09:56:10;30.30;;;10.38;;
70899;SDS011;67902;52.154;5.430;2024-01-11T09:58:37;34.53;;;9.20;;
70899;SDS011;67902;52.154;5.430;2024-01-11T10:01:07;32.08;;;10.38;;
70899;SDS011;67902;52.154;5.430;2024-01-11T10:03:37;39.30;;;11.27;;
70899;SDS011;67902;52.154;5.430;2024-01-11T10:06:06;32.75;;;10.85;;
70899;SDS011;67902;52.154;5.430;2024-01-11T10:08:36;31.65;;;9.70;;
70899;SDS011;67902;52.154;5.430;2024-01-11T10:11:03;28.70;;;9.07;;
70899;SDS011;67902;52.154;5.430;2024-01-11T10:13:30;30.35;;;10.38;;
70899;SDS011;67902;52.154;5.430;2024-01-11T10:16:11;31.75;;;9.63;;
70899;SDS011;67902;52.154;5.430;2024-01-11T10:18:44;29.80;;;9.05;;
70899;SDS011;67902;52.154;5.430;2024-01-11T10:21:11;27.70;;;9.60;;
70899;SDS011;67902;52.154;5.430;2024-01-11T10:23:38;27.38;;;9.20;;
70899;SDS011;67902;52.154;5.430;2024-01-11T10:26:05;33.20;;;10.82;;
70899;SDS011;67902;52.154;5.430;2024-01-11T10:28:33;32.60;;;10.73;;
70899;SDS011;67902;52.154;5.430;2024-01-11T10:31:05;28.33;;;8.85;;
70899;SDS011;67902;52.154;5.430;2024-01-11T10:33:34;32.20;;;10.82;;
70899;SDS011;67902;52.154;5.430;2024-01-11T10:36:02;34.28;;;10.27;;
70899;SDS011;67902;52.154;5.430;2024-01-11T10:38:29;28.73;;;10.02;;
70899;SDS011;67902;52.154;5.430;2024-01-11T10:40:58;28.27;;;9.73;;
70899;SDS011;67902;52.154;5.430;2024-01-11T10:43:26;30.65;;;10.35;;
70899;SDS011;67902;52.154;5.430;2024-01-11T10:45:55;26.65;;;9.50;;
70899;SDS011;67902;52.154;5.430;2024-01-11T10:48:25;27.80;;;8.95;;
70899;SDS011;67902;52.154;5.430;2024-01-11T10:50:54;29.85;;;8.90;;
70899;SDS011;67902;52.154;5.430;2024-01-11T10:56:03;31.10;;;11.38;;
70899;SDS011;67902;52.154;5.430;2024-01-11T10:58:33;34.67;;;10.52;;
70899;SDS011;67902;52.154;5.430;2024-01-11T11:01:04;31.50;;;10.65;;
70899;SDS011;67902;52.154;5.430;2024-01-11T11:03:32;28.42;;;9.48;;
70899;SDS011;67902;52.154;5.430;2024-01-11T11:06:00;30.67;;;10.40;;
70899;SDS011;67902;52.154;5.430;2024-01-11T11:08:27;28.58;;;8.85;;
70899;SDS011;67902;52.154;5.430;2024-01-11T11:10:55;24.92;;;9.40;;
70899;SDS011;67902;52.154;5.430;2024-01-11T11:13:25;29.58;;;8.80;;
70899;SDS011;67902;52.154;5.430;2024-01-11T11:15:53;27.42;;;9.13;;
70899;SDS011;67902;52.154;5.430;2024-01-11T11:18:20;26.65;;;8.73;;
70899;SDS011;67902;52.154;5.430;2024-01-11T11:20:47;25.00;;;8.88;;
70899;SDS011;67902;52.154;5.430;2024-01-11T11:23:15;26.40;;;8.30;;
70899;SDS011;67902;52.154;5.430;2024-01-11T11:25:46;28.52;;;9.02;;
70899;SDS011;67902;52.154;5.430;2024-01-11T11:28:14;26.65;;;9.57;;
70899;SDS011;67902;52.154;5.430;2024-01-11T11:30:42;27.63;;;9.18;;
70899;SDS011;67902;52.154;5.430;2024-01-11T11:33:11;27.92;;;8.65;;
70899;SDS011;67902;52.154;5.430;2024-01-11T11:35:43;28.08;;;9.60;;
70899;SDS011;67902;52.154;5.430;2024-01-11T11:38:19;24.58;;;8.82;;
70899;SDS011;67902;52.154;5.430;2024-01-11T11:40:48;22.55;;;8.13;;
70899;SDS011;67902;52.154;5.430;2024-01-11T11:43:17;28.20;;;8.65;;
70899;SDS011;67902;52.154;5.430;2024-01-11T11:45:46;26.02;;;9.32;;
70899;SDS011;67902;52.154;5.430;2024-01-11T11:51:08;26.90;;;8.93;;
70899;SDS011;67902;52.154;5.430;2024-01-11T11:53:37;26.00;;;9.00;;
70899;SDS011;67902;52.154;5.430;2024-01-11T11:56:06;29.50;;;9.65;;
70899;SDS011;67902;52.154;5.430;2024-01-11T11:58:36;34.13;;;12.52;;
70899;SDS011;67902;52.154;5.430;2024-01-11T12:01:03;41.40;;;11.77;;
70899;SDS011;67902;52.154;5.430;2024-01-11T12:03:34;27.20;;;10.52;;
70899;SDS011;67902;52.154;5.430;2024-01-11T12:06:05;24.30;;;9.05;;
70899;SDS011;67902;52.154;5.430;2024-01-11T12:08:33;30.17;;;9.23;;
70899;SDS011;67902;52.154;5.430;2024-01-11T12:11:00;22.92;;;8.95;;
70899;SDS011;67902;52.154;5.430;2024-01-11T12:13:27;26.52;;;9.10;;
70899;SDS011;67902;52.154;5.430;2024-01-11T12:15:54;26.17;;;8.93;;
70899;SDS011;67902;52.154;5.430;2024-01-11T12:18:21;24.80;;;8.18;;
70899;SDS011;67902;52.154;5.430;2024-01-11T12:20:48;22.05;;;6.50;;
70899;SDS011;67902;52.154;5.430;2024-01-11T12:23:15;27.45;;;7.70;;
70899;SDS011;67902;52.154;5.430;2024-01-11T12:25:42;22.20;;;7.53;;
70899;SDS011;67902;52.154;5.430;2024-01-11T12:28:09;25.70;;;8.25;;
70899;SDS011;67902;52.154;5.430;2024-01-11T12:30:36;21.90;;;8.38;;
70899;SDS011;67902;52.154;5.430;2024-01-11T12:33:07;25.95;;;8.73;;
70899;SDS011;67902;52.154;5.430;2024-01-11T12:35:34;21.92;;;7.97;;
70899;SDS011;67902;52.154;5.430;2024-01-11T12:38:03;25.70;;;8.00;;
70899;SDS011;67902;52.154;5.430;2024-01-11T12:40:32;26.20;;;8.52;;
70899;SDS011;67902;52.154;5.430;2024-01-11T12:43:06;22.17;;;8.15;;
70899;SDS011;67902;52.154;5.430;2024-01-11T12:45:37;23.05;;;8.18;;
70899;SDS011;67902;52.154;5.430;2024-01-11T12:48:08;21.60;;;7.97;;
70899;SDS011;67902;52.154;5.430;2024-01-11T12:50:36;24.52;;;8.32;;
70899;SDS011;67902;52.154;5.430;2024-01-11T12:53:15;24.30;;;7.88;;
70899;SDS011;67902;52.154;5.430;2024-01-11T12:55:48;19.40;;;6.88;;
70899;SDS011;67902;52.154;5.430;2024-01-11T12:58:29;29.67;;;9.65;;
70899;SDS011;67902;52.154;5.430;2024-01-11T13:00:56;27.08;;;8.77;;
70899;SDS011;67902;52.154;5.430;2024-01-11T13:03:24;18.13;;;6.53;;
70899;SDS011;67902;52.154;5.430;2024-01-11T13:05:54;23.92;;;8.10;;
70899;SDS011;67902;52.154;5.430;2024-01-11T13:08:20;29.08;;;8.77;;
70899;SDS011;67902;52.154;5.430;2024-01-11T13:10:47;27.33;;;8.35;;
70899;SDS011;67902;52.154;5.430;2024-01-11T13:13:15;22.10;;;8.50;;
70899;SDS011;67902;52.154;5.430;2024-01-11T13:15:41;20.40;;;7.18;;
70899;SDS011;67902;52.154;5.430;2024-01-11T13:18:08;20.80;;;7.55;;
70899;SDS011;67902;52.154;5.430;2024-01-11T13:20:38;24.67;;;8.35;;
70899;SDS011;67902;52.154;5.430;2024-01-11T13:23:11;20.10;;;7.15;;
70899;SDS011;67902;52.154;5.430;2024-01-11T13:25:47;25.85;;;8.30;;
70899;SDS011;67902;52.154;5.430;2024-01-11T13:28:16;27.13;;;8.45;;
70899;SDS011;67902;52.154;5.430;2024-01-11T13:30:44;22.25;;;6.85;;
70899;SDS011;67902;52.154;5.430;2024-01-11T13:33:17;22.15;;;7.70;;
70899;SDS011;67902;52.154;5.430;2024-01-11T13:35:45;22.40;;;8.02;;
70899;SDS011;67902;52.154;5.430;2024-01-11T13:38:12;21.13;;;8.40;;
70899;SDS011;67902;52.154;5.430;2024-01-11T13:40:39;25.25;;;8.15;;
70899;SDS011;67902;52.154;5.430;2024-01-11T13:43:07;22.13;;;7.65;;
70899;SDS011;67902;52.154;5.430;2024-01-11T13:45:36;22.33;;;7.97;;
70899;SDS011;67902;52.154;5.430;2024-01-11T13:48:03;25.00;;;8.18;;
70899;SDS011;67902;52.154;5.430;2024-01-11T13:50:31;23.40;;;8.35;;
70899;SDS011;67902;52.154;5.430;2024-01-11T13:52:59;19.80;;;7.40;;
70899;SDS011;67902;52.154;5.430;2024-01-11T13:55:26;24.42;;;8.07;;
70899;SDS011;67902;52.154;5.430;2024-01-11T13:57:53;23.27;;;7.90;;
70899;SDS011;67902;52.154;5.430;2024-01-11T14:00:20;21.48;;;7.30;;
70899;SDS011;67902;52.154;5.430;2024-01-11T14:02:47;20.60;;;7.43;;
70899;SDS011;67902;52.154;5.430;2024-01-11T14:05:14;22.25;;;6.90;;
70899;SDS011;67902;52.154;5.430;2024-01-11T14:07:44;18.70;;;6.63;;
70899;SDS011;67902;52.154;5.430;2024-01-11T14:10:11;22.88;;;7.15;;
70899;SDS011;67902;52.154;5.430;2024-01-11T14:12:39;23.42;;;7.45;;
70899;SDS011;67902;52.154;5.430;2024-01-11T14:15:06;26.17;;;7.70;;
70899;SDS011;67902;52.154;5.430;2024-01-11T14:17:38;27.77;;;7.97;;
70899;SDS011;67902;52.154;5.430;2024-01-11T14:20:07;19.92;;;7.63;;
70899;SDS011;67902;52.154;5.430;2024-01-11T14:22:41;20.08;;;7.25;;
70899;SDS011;67902;52.154;5.430;2024-01-11T14:25:08;18.80;;;6.82;;
70899;SDS011;67902;52.154;5.430;2024-01-11T14:27:37;24.10;;;7.68;;
70899;SDS011;67902;52.154;5.430;2024-01-11T14:30:05;28.48;;;8.75;;
70899;SDS011;67902;52.154;5.430;2024-01-11T14:32:33;23.30;;;7.40;;
70899;SDS011;67902;52.154;5.430;2024-01-11T14:35:03;22.95;;;7.97;;
70899;SDS011;67902;52.154;5.430;2024-01-11T14:37:32;21.98;;;7.25;;
70899;SDS011;67902;52.154;5.430;2024-01-11T14:40:00;20.83;;;7.60;;
70899;SDS011;67902;52.154;5.430;2024-01-11T14:42:27;20.50;;;6.88;;